sensor_id;sensor_type;location;lat;lon;timestamp;P1;durP1;ratioP1;P2;durP2;ratioP2
14611;SDS011;7392;52.078;11.650;2023-04-03T00:01:03;1.03;;;0.60;;
14611;SDS011;7392;52.078;11.650;2023-04-03T00:03:31;0.80;;;0.70;;
14611;SDS011;7392;52.078;11.650;2023-04-03T00:06:00;1.80;;;0.80;;
14611;SDS011;7392;52.078;11.650;2023-04-03T00:08:28;0.90;;;0.60;;
14611;SDS011;7392;52.078;11.650;2023-04-03T00:10:58;0.93;;;0.50;;
14611;SDS011;7392;52.078;11.650;2023-04-03T00:13:26;1.20;;;0.90;;
14611;SDS011;7392;52.078;11.650;2023-04-03T00:15:53;1.50;;;1.10;;
14611;SDS011;7392;52.078;11.650;2023-04-03T00:18:21;2.70;;;0.80;;
14611;SDS011;7392;52.078;11.650;2023-04-03T00:20:49;1.00;;;0.90;;
14611;SDS011;7392;52.078;11.650;2023-04-03T00:23:17;0.87;;;0.70;;
14611;SDS011;7392;52.078;11.650;2023-04-03T00:25:44;0.87;;;0.70;;
14611;SDS011;7392;52.078;11.650;2023-04-03T00:28:13;0.97;;;0.67;;
14611;SDS011;7392;52.078;11.650;2023-04-03T00:30:41;1.60;;;0.97;;
14611;SDS011;7392;52.078;11.650;2023-04-03T00:33:09;1.13;;;0.73;;
14611;SDS011;7392;52.078;11.650;2023-04-03T00:35:39;1.23;;;0.90;;
14611;SDS011;7392;52.078;11.650;2023-04-03T00:38:07;1.03;;;0.70;;
14611;SDS011;7392;52.078;11.650;2023-04-03T00:40:36;1.00;;;0.70;;
14611;SDS011;7392;52.078;11.650;2023-04-03T00:43:09;2.13;;;0.70;;
14611;SDS011;7392;52.078;11.650;2023-04-03T00:45:41;1.30;;;0.90;;
14611;SDS011;7392;52.078;11.650;2023-04-03T00:48:12;1.23;;;0.90;;
14611;SDS011;7392;52.078;11.650;2023-04-03T00:50:43;0.80;;;0.50;;
14611;SDS011;7392;52.078;11.650;2023-04-03T00:53:13;1.17;;;0.80;;
14611;SDS011;7392;52.078;11.650;2023-04-03T00:55:45;1.00;;;0.90;;
14611;SDS011;7392;52.078;11.650;2023-04-03T00:58:15;0.93;;;0.60;;
14611;SDS011;7392;52.078;11.650;2023-04-03T01:00:46;0.70;;;0.60;;
14611;SDS011;7392;52.078;11.650;2023-04-03T01:03:17;0.80;;;0.60;;
14611;SDS011;7392;52.078;11.650;2023-04-03T01:05:46;0.73;;;0.63;;
14611;SDS011;7392;52.078;11.650;2023-04-03T01:08:14;0.93;;;0.70;;
14611;SDS011;7392;52.078;11.650;2023-04-03T01:10:41;2.23;;;0.70;;
14611;SDS011;7392;52.078;11.650;2023-04-03T01:13:20;0.77;;;0.57;;
14611;SDS011;7392;52.078;11.650;2023-04-03T01:15:51;1.13;;;0.63;;
14611;SDS011;7392;52.078;11.650;2023-04-03T01:18:19;1.90;;;0.90;;
14611;SDS011;7392;52.078;11.650;2023-04-03T01:23:58;0.80;;;0.40;;
14611;SDS011;7392;52.078;11.650;2023-04-03T01:26:32;1.40;;;0.80;;
14611;SDS011;7392;52.078;11.650;2023-04-03T01:29:02;1.33;;;0.60;;
14611;SDS011;7392;52.078;11.650;2023-04-03T01:34:10;0.50;;;0.50;;
14611;SDS011;7392;52.078;11.650;2023-04-03T01:36:38;0.80;;;0.70;;
14611;SDS011;7392;52.078;11.650;2023-04-03T01:39:06;0.80;;;0.60;;
14611;SDS011;7392;52.078;11.650;2023-04-03T01:41:34;0.70;;;0.60;;
14611;SDS011;7392;52.078;11.650;2023-04-03T01:44:10;1.70;;;0.80;;
14611;SDS011;7392;52.078;11.650;2023-04-03T01:46:37;0.70;;;0.70;;
14611;SDS011;7392;52.078;11.650;2023-04-03T01:49:06;1.50;;;0.70;;
14611;SDS011;7392;52.078;11.650;2023-04-03T01:51:34;1.37;;;0.90;;
14611;SDS011;7392;52.078;11.650;2023-04-03T01:54:02;0.97;;;0.60;;
14611;SDS011;7392;52.078;11.650;2023-04-03T01:56:30;0.60;;;0.57;;
14611;SDS011;7392;52.078;11.650;2023-04-03T01:58:58;2.30;;;0.80;;
14611;SDS011;7392;52.078;11.650;2023-04-03T02:01:26;1.20;;;0.60;;
14611;SDS011;7392;52.078;11.650;2023-04-03T02:03:53;1.93;;;0.80;;
14611;SDS011;7392;52.078;11.650;2023-04-03T02:06:23;0.93;;;0.50;;
14611;SDS011;7392;52.078;11.650;2023-04-03T02:08:51;1.23;;;0.70;;
14611;SDS011;7392;52.078;11.650;2023-04-03T02:11:19;1.07;;;0.80;;
14611;SDS011;7392;52.078;11.650;2023-04-03T02:13:47;2.13;;;0.80;;
14611;SDS011;7392;52.078;11.650;2023-04-03T02:16:15;1.40;;;0.80;;
14611;SDS011;7392;52.078;11.650;2023-04-03T02:18:42;2.20;;;0.93;;
14611;SDS011;7392;52.078;11.650;2023-04-03T02:21:10;1.10;;;0.70;;
14611;SDS011;7392;52.078;11.650;2023-04-03T02:23:39;0.60;;;0.60;;
14611;SDS011;7392;52.078;11.650;2023-04-03T02:26:07;1.83;;;0.73;;
14611;SDS011;7392;52.078;11.650;2023-04-03T02:28:37;0.70;;;0.53;;
14611;SDS011;7392;52.078;11.650;2023-04-03T02:31:05;0.50;;;0.50;;
14611;SDS011;7392;52.078;11.650;2023-04-03T02:33:35;0.70;;;0.50;;
14611;SDS011;7392;52.078;11.650;2023-04-03T02:36:06;2.07;;;0.93;;
14611;SDS011;7392;52.078;11.650;2023-04-03T02:38:36;1.13;;;0.70;;
14611;SDS011;7392;52.078;11.650;2023-04-03T02:41:05;1.33;;;0.80;;
14611;SDS011;7392;52.078;11.650;2023-04-03T02:43:35;0.87;;;0.67;;
14611;SDS011;7392;52.078;11.650;2023-04-03T02:46:04;0.73;;;0.60;;
14611;SDS011;7392;52.078;11.650;2023-04-03T02:48:33;1.43;;;0.70;;
14611;SDS011;7392;52.078;11.650;2023-04-03T02:51:00;0.80;;;0.60;;
14611;SDS011;7392;52.078;11.650;2023-04-03T02:53:28;1.27;;;0.73;;
14611;SDS011;7392;52.078;11.650;2023-04-03T02:55:57;1.07;;;0.60;;
14611;SDS011;7392;52.078;11.650;2023-04-03T02:58:26;0.73;;;0.67;;
14611;SDS011;7392;52.078;11.650;2023-04-03T03:00:56;1.37;;;0.77;;
14611;SDS011;7392;52.078;11.650;2023-04-03T03:03:24;1.03;;;0.83;;
14611;SDS011;7392;52.078;11.650;2023-04-03T03:06:00;1.03;;;0.77;;
14611;SDS011;7392;52.078;11.650;2023-04-03T03:08:28;2.40;;;1.03;;
14611;SDS011;7392;52.078;11.650;2023-04-03T03:10:56;2.13;;;0.80;;
14611;SDS011;7392;52.078;11.650;2023-04-03T03:13:23;1.03;;;0.73;;
14611;SDS011;7392;52.078;11.650;2023-04-03T03:15:53;0.67;;;0.67;;
14611;SDS011;7392;52.078;11.650;2023-04-03T03:18:21;1.80;;;0.73;;
14611;SDS011;7392;52.078;11.650;2023-04-03T03:20:50;0.80;;;0.60;;
14611;SDS011;7392;52.078;11.650;2023-04-03T03:23:19;1.00;;;0.80;;
14611;SDS011;7392;52.078;11.650;2023-04-03T03:25:47;0.73;;;0.57;;
14611;SDS011;7392;52.078;11.650;2023-04-03T03:28:14;2.00;;;0.80;;
14611;SDS011;7392;52.078;11.650;2023-04-03T03:30:42;0.90;;;0.70;;
14611;SDS011;7392;52.078;11.650;2023-04-03T03:33:11;0.67;;;0.63;;
14611;SDS011;7392;52.078;11.650;2023-04-03T03:35:39;0.87;;;0.53;;
14611;SDS011;7392;52.078;11.650;2023-04-03T03:38:08;0.93;;;0.73;;
14611;SDS011;7392;52.078;11.650;2023-04-03T03:40:36;0.97;;;0.70;;
14611;SDS011;7392;52.078;11.650;2023-04-03T03:43:04;1.27;;;0.70;;
14611;SDS011;7392;52.078;11.650;2023-04-03T03:45:32;0.90;;;0.60;;
14611;SDS011;7392;52.078;11.650;2023-04-03T03:48:00;0.63;;;0.57;;
14611;SDS011;7392;52.078;11.650;2023-04-03T03:50:30;0.47;;;0.47;;
14611;SDS011;7392;52.078;11.650;2023-04-03T03:52:58;0.90;;;0.67;;
14611;SDS011;7392;52.078;11.650;2023-04-03T03:55:26;1.77;;;0.70;;
14611;SDS011;7392;52.078;11.650;2023-04-03T03:57:56;1.17;;;0.77;;
14611;SDS011;7392;52.078;11.650;2023-04-03T04:00:24;0.60;;;0.50;;
14611;SDS011;7392;52.078;11.650;2023-04-03T04:02:54;0.50;;;0.50;;
14611;SDS011;7392;52.078;11.650;2023-04-03T04:05:25;0.90;;;0.70;;
14611;SDS011;7392;52.078;11.650;2023-04-03T04:07:54;1.00;;;0.60;;
14611;SDS011;7392;52.078;11.650;2023-04-03T04:12:06;2.00;;;0.70;;
14611;SDS011;7392;52.078;11.650;2023-04-03T04:14:37;1.30;;;0.70;;
14611;SDS011;7392;52.078;11.650;2023-04-03T04:17:09;1.07;;;0.80;;
14611;SDS011;7392;52.078;11.650;2023-04-03T04:19:41;1.00;;;0.70;;
14611;SDS011;7392;52.078;11.650;2023-04-03T04:22:09;0.90;;;0.70;;
14611;SDS011;7392;52.078;11.650;2023-04-03T04:24:40;1.10;;;0.47;;
14611;SDS011;7392;52.078;11.650;2023-04-03T04:27:10;0.97;;;0.60;;
14611;SDS011;7392;52.078;11.650;2023-04-03T04:29:42;0.97;;;0.67;;
14611;SDS011;7392;52.078;11.650;2023-04-03T04:32:09;0.73;;;0.57;;
14611;SDS011;7392;52.078;11.650;2023-04-03T04:34:37;0.97;;;0.77;;
14611;SDS011;7392;52.078;11.650;2023-04-03T04:37:09;1.63;;;0.80;;
14611;SDS011;7392;52.078;11.650;2023-04-03T04:39:39;2.93;;;0.90;;
14611;SDS011;7392;52.078;11.650;2023-04-03T04:42:09;1.90;;;0.70;;
14611;SDS011;7392;52.078;11.650;2023-04-03T04:44:43;1.57;;;1.00;;
14611;SDS011;7392;52.078;11.650;2023-04-03T04:47:12;1.43;;;0.93;;
14611;SDS011;7392;52.078;11.650;2023-04-03T04:49:41;1.83;;;1.10;;
14611;SDS011;7392;52.078;11.650;2023-04-03T04:52:09;1.80;;;1.00;;
14611;SDS011;7392;52.078;11.650;2023-04-03T04:54:39;2.33;;;1.37;;
14611;SDS011;7392;52.078;11.650;2023-04-03T04:57:06;1.80;;;1.20;;
14611;SDS011;7392;52.078;11.650;2023-04-03T04:59:35;1.47;;;1.10;;
14611;SDS011;7392;52.078;11.650;2023-04-03T05:02:05;1.57;;;0.97;;
14611;SDS011;7392;52.078;11.650;2023-04-03T05:04:34;1.50;;;1.10;;
14611;SDS011;7392;52.078;11.650;2023-04-03T05:07:07;1.70;;;1.03;;
14611;SDS011;7392;52.078;11.650;2023-04-03T05:09:36;1.13;;;0.80;;
14611;SDS011;7392;52.078;11.650;2023-04-03T05:12:04;1.17;;;0.90;;
14611;SDS011;7392;52.078;11.650;2023-04-03T05:14:40;1.40;;;0.90;;
14611;SDS011;7392;52.078;11.650;2023-04-03T05:17:10;1.10;;;0.87;;
14611;SDS011;7392;52.078;11.650;2023-04-03T05:19:42;1.03;;;0.80;;
14611;SDS011;7392;52.078;11.650;2023-04-03T05:22:14;1.47;;;0.80;;
14611;SDS011;7392;52.078;11.650;2023-04-03T05:24:41;0.97;;;0.70;;
14611;SDS011;7392;52.078;11.650;2023-04-03T05:27:09;2.07;;;1.00;;
14611;SDS011;7392;52.078;11.650;2023-04-03T05:29:42;1.10;;;0.70;;
14611;SDS011;7392;52.078;11.650;2023-04-03T05:32:15;1.20;;;0.77;;
14611;SDS011;7392;52.078;11.650;2023-04-03T05:34:47;0.80;;;0.60;;
14611;SDS011;7392;52.078;11.650;2023-04-03T05:37:15;1.30;;;0.83;;
14611;SDS011;7392;52.078;11.650;2023-04-03T05:39:45;2.30;;;0.80;;
14611;SDS011;7392;52.078;11.650;2023-04-03T05:42:13;1.10;;;0.77;;
14611;SDS011;7392;52.078;11.650;2023-04-03T05:44:44;1.33;;;0.70;;
14611;SDS011;7392;52.078;11.650;2023-04-03T05:47:13;0.90;;;0.60;;
14611;SDS011;7392;52.078;11.650;2023-04-03T05:49:41;1.20;;;0.73;;
14611;SDS011;7392;52.078;11.650;2023-04-03T05:52:11;2.63;;;0.90;;
14611;SDS011;7392;52.078;11.650;2023-04-03T05:54:47;2.27;;;0.97;;
14611;SDS011;7392;52.078;11.650;2023-04-03T05:57:22;1.43;;;1.00;;
14611;SDS011;7392;52.078;11.650;2023-04-03T05:59:52;1.20;;;0.80;;
14611;SDS011;7392;52.078;11.650;2023-04-03T06:02:21;2.13;;;1.30;;
14611;SDS011;7392;52.078;11.650;2023-04-03T06:04:50;1.93;;;1.17;;
14611;SDS011;7392;52.078;11.650;2023-04-03T06:07:19;1.70;;;1.10;;
14611;SDS011;7392;52.078;11.650;2023-04-03T06:09:49;1.67;;;1.20;;
14611;SDS011;7392;52.078;11.650;2023-04-03T06:12:21;1.73;;;1.30;;
14611;SDS011;7392;52.078;11.650;2023-04-03T06:14:52;1.83;;;1.20;;
14611;SDS011;7392;52.078;11.650;2023-04-03T06:17:20;3.63;;;1.27;;
14611;SDS011;7392;52.078;11.650;2023-04-03T06:19:49;1.27;;;1.03;;
14611;SDS011;7392;52.078;11.650;2023-04-03T06:22:17;1.73;;;1.03;;
14611;SDS011;7392;52.078;11.650;2023-04-03T06:24:46;2.40;;;1.00;;
14611;SDS011;7392;52.078;11.650;2023-04-03T06:27:13;1.77;;;1.20;;
14611;SDS011;7392;52.078;11.650;2023-04-03T06:29:42;2.27;;;0.90;;
14611;SDS011;7392;52.078;11.650;2023-04-03T06:32:13;2.53;;;1.20;;
14611;SDS011;7392;52.078;11.650;2023-04-03T06:34:41;3.40;;;0.80;;
14611;SDS011;7392;52.078;11.650;2023-04-03T06:37:10;1.40;;;0.77;;
14611;SDS011;7392;52.078;11.650;2023-04-03T06:39:38;2.30;;;0.93;;
14611;SDS011;7392;52.078;11.650;2023-04-03T06:42:06;2.63;;;1.20;;
14611;SDS011;7392;52.078;11.650;2023-04-03T06:44:38;2.10;;;1.07;;
14611;SDS011;7392;52.078;11.650;2023-04-03T06:47:06;3.13;;;0.97;;
14611;SDS011;7392;52.078;11.650;2023-04-03T06:49:37;3.07;;;1.23;;
14611;SDS011;7392;52.078;11.650;2023-04-03T06:52:05;1.50;;;0.80;;
14611;SDS011;7392;52.078;11.650;2023-04-03T06:54:34;1.23;;;0.93;;
14611;SDS011;7392;52.078;11.650;2023-04-03T06:57:03;2.27;;;0.90;;
14611;SDS011;7392;52.078;11.650;2023-04-03T06:59:31;0.73;;;0.73;;
14611;SDS011;7392;52.078;11.650;2023-04-03T07:01:58;1.93;;;1.20;;
14611;SDS011;7392;52.078;11.650;2023-04-03T07:04:26;3.03;;;1.47;;
14611;SDS011;7392;52.078;11.650;2023-04-03T07:06:55;3.67;;;1.50;;
14611;SDS011;7392;52.078;11.650;2023-04-03T07:09:23;2.13;;;1.20;;
14611;SDS011;7392;52.078;11.650;2023-04-03T07:11:50;3.90;;;2.00;;
14611;SDS011;7392;52.078;11.650;2023-04-03T07:14:18;5.10;;;1.70;;
14611;SDS011;7392;52.078;11.650;2023-04-03T07:16:47;3.70;;;1.90;;
14611;SDS011;7392;52.078;11.650;2023-04-03T07:19:14;4.27;;;2.07;;
14611;SDS011;7392;52.078;11.650;2023-04-03T07:21:46;5.27;;;1.93;;
14611;SDS011;7392;52.078;11.650;2023-04-03T07:24:16;4.87;;;1.80;;
14611;SDS011;7392;52.078;11.650;2023-04-03T07:26:44;3.07;;;2.00;;
14611;SDS011;7392;52.078;11.650;2023-04-03T07:29:12;3.20;;;1.73;;
14611;SDS011;7392;52.078;11.650;2023-04-03T07:31:40;6.50;;;2.10;;
14611;SDS011;7392;52.078;11.650;2023-04-03T07:34:08;3.07;;;1.77;;
14611;SDS011;7392;52.078;11.650;2023-04-03T07:36:36;4.23;;;1.93;;
14611;SDS011;7392;52.078;11.650;2023-04-03T07:39:05;4.73;;;1.87;;
14611;SDS011;7392;52.078;11.650;2023-04-03T07:41:35;3.30;;;1.80;;
14611;SDS011;7392;52.078;11.650;2023-04-03T07:44:03;3.83;;;1.70;;
14611;SDS011;7392;52.078;11.650;2023-04-03T07:46:31;2.93;;;1.47;;
14611;SDS011;7392;52.078;11.650;2023-04-03T07:48:59;3.30;;;1.93;;
14611;SDS011;7392;52.078;11.650;2023-04-03T07:51:27;3.27;;;1.40;;
14611;SDS011;7392;52.078;11.650;2023-04-03T07:53:56;3.33;;;1.70;;
14611;SDS011;7392;52.078;11.650;2023-04-03T07:56:24;3.10;;;1.50;;
14611;SDS011;7392;52.078;11.650;2023-04-03T07:58:53;5.57;;;1.60;;
14611;SDS011;7392;52.078;11.650;2023-04-03T08:01:21;2.67;;;1.43;;
14611;SDS011;7392;52.078;11.650;2023-04-03T08:03:49;3.50;;;1.83;;
14611;SDS011;7392;52.078;11.650;2023-04-03T08:06:18;3.23;;;1.40;;
14611;SDS011;7392;52.078;11.650;2023-04-03T08:08:58;3.73;;;1.57;;
14611;SDS011;7392;52.078;11.650;2023-04-03T08:11:27;6.27;;;1.70;;
14611;SDS011;7392;52.078;11.650;2023-04-03T08:14:00;3.87;;;1.40;;
14611;SDS011;7392;52.078;11.650;2023-04-03T08:16:28;4.90;;;1.70;;
14611;SDS011;7392;52.078;11.650;2023-04-03T08:18:56;2.67;;;1.30;;
14611;SDS011;7392;52.078;11.650;2023-04-03T08:21:24;3.57;;;1.63;;
14611;SDS011;7392;52.078;11.650;2023-04-03T08:23:52;3.30;;;1.40;;
14611;SDS011;7392;52.078;11.650;2023-04-03T08:26:20;4.37;;;1.70;;
14611;SDS011;7392;52.078;11.650;2023-04-03T08:28:48;5.17;;;1.70;;
14611;SDS011;7392;52.078;11.650;2023-04-03T08:31:18;4.93;;;1.70;;
14611;SDS011;7392;52.078;11.650;2023-04-03T08:33:47;3.33;;;1.30;;
14611;SDS011;7392;52.078;11.650;2023-04-03T08:36:16;2.47;;;1.27;;
14611;SDS011;7392;52.078;11.650;2023-04-03T08:38:46;2.83;;;1.40;;
14611;SDS011;7392;52.078;11.650;2023-04-03T08:41:16;2.10;;;1.20;;
14611;SDS011;7392;52.078;11.650;2023-04-03T08:43:58;3.30;;;1.50;;
14611;SDS011;7392;52.078;11.650;2023-04-03T08:46:36;5.70;;;1.60;;
14611;SDS011;7392;52.078;11.650;2023-04-03T08:49:17;2.53;;;1.27;;
14611;SDS011;7392;52.078;11.650;2023-04-03T08:51:52;1.53;;;1.00;;
14611;SDS011;7392;52.078;11.650;2023-04-03T08:54:27;3.13;;;1.47;;
14611;SDS011;7392;52.078;11.650;2023-04-03T08:57:02;3.03;;;1.43;;
14611;SDS011;7392;52.078;11.650;2023-04-03T08:59:35;2.37;;;1.20;;
14611;SDS011;7392;52.078;11.650;2023-04-03T09:02:16;3.60;;;1.17;;
14611;SDS011;7392;52.078;11.650;2023-04-03T09:04:53;2.50;;;1.03;;
14611;SDS011;7392;52.078;11.650;2023-04-03T09:07:22;1.80;;;0.90;;
14611;SDS011;7392;52.078;11.650;2023-04-03T09:10:00;2.33;;;1.20;;
14611;SDS011;7392;52.078;11.650;2023-04-03T09:12:32;3.13;;;1.30;;
14611;SDS011;7392;52.078;11.650;2023-04-03T09:15:08;1.13;;;0.93;;
14611;SDS011;7392;52.078;11.650;2023-04-03T09:17:57;2.00;;;1.20;;
14611;SDS011;7392;52.078;11.650;2023-04-03T09:20:33;3.57;;;1.80;;
14611;SDS011;7392;52.078;11.650;2023-04-03T09:23:16;3.53;;;1.33;;
14611;SDS011;7392;52.078;11.650;2023-04-03T09:25:51;2.00;;;1.30;;
14611;SDS011;7392;52.078;11.650;2023-04-03T09:28:24;3.17;;;1.40;;
14611;SDS011;7392;52.078;11.650;2023-04-03T09:30:54;3.27;;;1.53;;
14611;SDS011;7392;52.078;11.650;2023-04-03T09:33:27;3.07;;;1.10;;
14611;SDS011;7392;52.078;11.650;2023-04-03T09:35:58;3.37;;;1.30;;
14611;SDS011;7392;52.078;11.650;2023-04-03T09:38:29;2.20;;;1.20;;
14611;SDS011;7392;52.078;11.650;2023-04-03T09:41:05;2.50;;;1.30;;
14611;SDS011;7392;52.078;11.650;2023-04-03T09:43:35;1.63;;;1.00;;
14611;SDS011;7392;52.078;11.650;2023-04-03T09:46:16;2.70;;;1.07;;
14611;SDS011;7392;52.078;11.650;2023-04-03T09:48:52;1.40;;;1.10;;
14611;SDS011;7392;52.078;11.650;2023-04-03T09:51:35;1.40;;;0.93;;
14611;SDS011;7392;52.078;11.650;2023-04-03T09:54:24;2.80;;;1.10;;
14611;SDS011;7392;52.078;11.650;2023-04-03T09:57:01;1.60;;;1.00;;
14611;SDS011;7392;52.078;11.650;2023-04-03T09:59:34;1.50;;;1.00;;
14611;SDS011;7392;52.078;11.650;2023-04-03T10:02:03;2.80;;;1.20;;
14611;SDS011;7392;52.078;11.650;2023-04-03T10:04:49;1.60;;;0.93;;
14611;SDS011;7392;52.078;11.650;2023-04-03T10:07:35;2.50;;;0.97;;
14611;SDS011;7392;52.078;11.650;2023-04-03T10:10:16;3.47;;;1.00;;
14611;SDS011;7392;52.078;11.650;2023-04-03T10:12:46;1.00;;;0.90;;
14611;SDS011;7392;52.078;11.650;2023-04-03T10:15:16;1.87;;;1.10;;
14611;SDS011;7392;52.078;11.650;2023-04-03T10:17:49;1.70;;;0.93;;
14611;SDS011;7392;52.078;11.650;2023-04-03T10:20:26;1.93;;;0.90;;
14611;SDS011;7392;52.078;11.650;2023-04-03T10:23:02;1.87;;;1.20;;
14611;SDS011;7392;52.078;11.650;2023-04-03T10:25:43;1.23;;;0.80;;
14611;SDS011;7392;52.078;11.650;2023-04-03T10:28:23;2.73;;;1.07;;
14611;SDS011;7392;52.078;11.650;2023-04-03T10:30:57;1.93;;;1.27;;
14611;SDS011;7392;52.078;11.650;2023-04-03T10:33:35;2.33;;;1.10;;
14611;SDS011;7392;52.078;11.650;2023-04-03T10:36:22;2.40;;;1.07;;
14611;SDS011;7392;52.078;11.650;2023-04-03T10:39:00;1.63;;;0.97;;
14611;SDS011;7392;52.078;11.650;2023-04-03T10:41:39;3.17;;;1.07;;
14611;SDS011;7392;52.078;11.650;2023-04-03T10:44:26;4.30;;;1.43;;
14611;SDS011;7392;52.078;11.650;2023-04-03T10:47:06;1.70;;;0.97;;
14611;SDS011;7392;52.078;11.650;2023-04-03T10:49:47;3.40;;;1.27;;
14611;SDS011;7392;52.078;11.650;2023-04-03T10:52:28;1.80;;;0.90;;
14611;SDS011;7392;52.078;11.650;2023-04-03T10:55:08;1.43;;;1.00;;
14611;SDS011;7392;52.078;11.650;2023-04-03T10:57:52;2.27;;;1.27;;
14611;SDS011;7392;52.078;11.650;2023-04-03T11:00:22;2.37;;;1.30;;
14611;SDS011;7392;52.078;11.650;2023-04-03T11:02:59;1.90;;;0.90;;
14611;SDS011;7392;52.078;11.650;2023-04-03T11:05:30;2.17;;;1.00;;
14611;SDS011;7392;52.078;11.650;2023-04-03T11:08:10;2.17;;;1.10;;
14611;SDS011;7392;52.078;11.650;2023-04-03T11:10:44;2.60;;;1.17;;
14611;SDS011;7392;52.078;11.650;2023-04-03T11:13:17;3.50;;;1.30;;
14611;SDS011;7392;52.078;11.650;2023-04-03T11:15:49;1.77;;;0.90;;
14611;SDS011;7392;52.078;11.650;2023-04-03T11:18:21;1.40;;;0.90;;
14611;SDS011;7392;52.078;11.650;2023-04-03T11:20:57;2.07;;;1.10;;
14611;SDS011;7392;52.078;11.650;2023-04-03T11:23:31;0.93;;;0.63;;
14611;SDS011;7392;52.078;11.650;2023-04-03T11:26:15;1.40;;;0.80;;
14611;SDS011;7392;52.078;11.650;2023-04-03T11:28:45;1.60;;;0.90;;
14611;SDS011;7392;52.078;11.650;2023-04-03T11:31:16;1.40;;;0.70;;
14611;SDS011;7392;52.078;11.650;2023-04-03T11:33:55;1.00;;;0.70;;
14611;SDS011;7392;52.078;11.650;2023-04-03T11:36:31;1.33;;;0.60;;
14611;SDS011;7392;52.078;11.650;2023-04-03T11:39:10;1.27;;;0.90;;
14611;SDS011;7392;52.078;11.650;2023-04-03T11:41:48;2.07;;;1.10;;
14611;SDS011;7392;52.078;11.650;2023-04-03T11:44:29;2.53;;;0.90;;
14611;SDS011;7392;52.078;11.650;2023-04-03T11:47:00;1.37;;;1.00;;
14611;SDS011;7392;52.078;11.650;2023-04-03T11:55:43;2.57;;;1.00;;
14611;SDS011;7392;52.078;11.650;2023-04-03T11:58:22;3.40;;;1.20;;
14611;SDS011;7392;52.078;11.650;2023-04-03T12:09:35;2.37;;;1.23;;
14611;SDS011;7392;52.078;11.650;2023-04-03T12:12:27;4.03;;;1.90;;
14611;SDS011;7392;52.078;11.650;2023-04-03T12:15:11;3.13;;;1.90;;
14611;SDS011;7392;52.078;11.650;2023-04-03T12:17:54;3.77;;;1.97;;
14611;SDS011;7392;52.078;11.650;2023-04-03T12:23:27;2.67;;;1.50;;
14611;SDS011;7392;52.078;11.650;2023-04-03T12:26:01;2.50;;;1.30;;
14611;SDS011;7392;52.078;11.650;2023-04-03T12:28:38;2.37;;;1.10;;
14611;SDS011;7392;52.078;11.650;2023-04-03T12:31:07;1.83;;;1.20;;
14611;SDS011;7392;52.078;11.650;2023-04-03T12:33:44;1.37;;;1.10;;
14611;SDS011;7392;52.078;11.650;2023-04-03T12:36:32;4.80;;;1.40;;
14611;SDS011;7392;52.078;11.650;2023-04-03T12:39:13;2.90;;;1.67;;
14611;SDS011;7392;52.078;11.650;2023-04-03T12:42:05;4.03;;;2.20;;
14611;SDS011;7392;52.078;11.650;2023-04-03T12:44:47;2.43;;;1.53;;
14611;SDS011;7392;52.078;11.650;2023-04-03T12:47:28;2.67;;;1.40;;
14611;SDS011;7392;52.078;11.650;2023-04-03T12:49:59;2.93;;;1.10;;
14611;SDS011;7392;52.078;11.650;2023-04-03T12:52:32;1.80;;;1.00;;
14611;SDS011;7392;52.078;11.650;2023-04-03T12:55:03;1.27;;;0.80;;
14611;SDS011;7392;52.078;11.650;2023-04-03T12:57:44;1.10;;;0.80;;
14611;SDS011;7392;52.078;11.650;2023-04-03T13:00:20;1.23;;;1.00;;
14611;SDS011;7392;52.078;11.650;2023-04-03T13:02:53;1.50;;;0.80;;
14611;SDS011;7392;52.078;11.650;2023-04-03T13:05:21;2.23;;;1.00;;
14611;SDS011;7392;52.078;11.650;2023-04-03T13:07:52;1.67;;;0.90;;
14611;SDS011;7392;52.078;11.650;2023-04-03T13:10:25;1.47;;;0.87;;
14611;SDS011;7392;52.078;11.650;2023-04-03T13:12:54;1.20;;;1.00;;
14611;SDS011;7392;52.078;11.650;2023-04-03T13:15:26;1.17;;;0.70;;
14611;SDS011;7392;52.078;11.650;2023-04-03T13:17:55;2.07;;;1.00;;
14611;SDS011;7392;52.078;11.650;2023-04-03T13:20:27;1.90;;;0.83;;
14611;SDS011;7392;52.078;11.650;2023-04-03T13:22:57;1.73;;;1.00;;
14611;SDS011;7392;52.078;11.650;2023-04-03T13:25:28;1.10;;;0.80;;
14611;SDS011;7392;52.078;11.650;2023-04-03T13:27:59;1.20;;;0.70;;
14611;SDS011;7392;52.078;11.650;2023-04-03T13:30:53;1.77;;;0.93;;
14611;SDS011;7392;52.078;11.650;2023-04-03T13:33:24;1.23;;;1.10;;
14611;SDS011;7392;52.078;11.650;2023-04-03T13:35:54;2.10;;;1.07;;
14611;SDS011;7392;52.078;11.650;2023-04-03T13:38:24;2.50;;;1.10;;
14611;SDS011;7392;52.078;11.650;2023-04-03T13:40:56;1.87;;;1.00;;
14611;SDS011;7392;52.078;11.650;2023-04-03T13:43:29;2.13;;;0.90;;
14611;SDS011;7392;52.078;11.650;2023-04-03T13:46:02;2.33;;;1.10;;
14611;SDS011;7392;52.078;11.650;2023-04-03T13:48:36;3.07;;;0.93;;
14611;SDS011;7392;52.078;11.650;2023-04-03T13:51:13;1.93;;;0.83;;
14611;SDS011;7392;52.078;11.650;2023-04-03T13:53:47;1.13;;;0.83;;
14611;SDS011;7392;52.078;11.650;2023-04-03T13:56:19;1.33;;;0.80;;
14611;SDS011;7392;52.078;11.650;2023-04-03T13:59:05;2.10;;;0.87;;
14611;SDS011;7392;52.078;11.650;2023-04-03T14:01:50;2.10;;;1.03;;
14611;SDS011;7392;52.078;11.650;2023-04-03T14:04:20;2.47;;;0.83;;
14611;SDS011;7392;52.078;11.650;2023-04-03T14:06:49;1.27;;;0.83;;
14611;SDS011;7392;52.078;11.650;2023-04-03T14:09:18;1.27;;;0.83;;
14611;SDS011;7392;52.078;11.650;2023-04-03T14:11:48;1.00;;;0.90;;
14611;SDS011;7392;52.078;11.650;2023-04-03T14:14:19;1.10;;;0.70;;
14611;SDS011;7392;52.078;11.650;2023-04-03T14:16:53;2.37;;;1.10;;
14611;SDS011;7392;52.078;11.650;2023-04-03T14:19:24;1.33;;;0.97;;
14611;SDS011;7392;52.078;11.650;2023-04-03T14:21:55;1.33;;;0.83;;
14611;SDS011;7392;52.078;11.650;2023-04-03T14:24:24;1.93;;;0.90;;
14611;SDS011;7392;52.078;11.650;2023-04-03T14:26:54;1.03;;;0.80;;
14611;SDS011;7392;52.078;11.650;2023-04-03T14:29:25;1.63;;;0.93;;
14611;SDS011;7392;52.078;11.650;2023-04-03T14:31:54;2.20;;;0.70;;
14611;SDS011;7392;52.078;11.650;2023-04-03T14:34:39;1.27;;;0.93;;
14611;SDS011;7392;52.078;11.650;2023-04-03T14:37:10;1.70;;;1.00;;
14611;SDS011;7392;52.078;11.650;2023-04-03T14:39:39;1.17;;;0.80;;
14611;SDS011;7392;52.078;11.650;2023-04-03T14:42:11;1.20;;;0.70;;
14611;SDS011;7392;52.078;11.650;2023-04-03T14:44:39;2.20;;;0.90;;
14611;SDS011;7392;52.078;11.650;2023-04-03T14:47:14;0.80;;;0.80;;
14611;SDS011;7392;52.078;11.650;2023-04-03T14:49:57;1.30;;;0.77;;
14611;SDS011;7392;52.078;11.650;2023-04-03T14:52:28;1.60;;;0.90;;
14611;SDS011;7392;52.078;11.650;2023-04-03T14:55:00;1.37;;;0.93;;
14611;SDS011;7392;52.078;11.650;2023-04-03T14:57:32;2.00;;;1.27;;
14611;SDS011;7392;52.078;11.650;2023-04-03T15:00:01;1.77;;;1.13;;
14611;SDS011;7392;52.078;11.650;2023-04-03T15:02:37;2.87;;;1.23;;
14611;SDS011;7392;52.078;11.650;2023-04-03T15:05:07;1.57;;;0.93;;
14611;SDS011;7392;52.078;11.650;2023-04-03T15:07:38;3.13;;;1.10;;
14611;SDS011;7392;52.078;11.650;2023-04-03T15:10:14;2.83;;;1.13;;
14611;SDS011;7392;52.078;11.650;2023-04-03T15:12:50;2.40;;;1.00;;
14611;SDS011;7392;52.078;11.650;2023-04-03T15:15:22;2.63;;;1.30;;
14611;SDS011;7392;52.078;11.650;2023-04-03T15:17:53;2.93;;;1.40;;
14611;SDS011;7392;52.078;11.650;2023-04-03T15:20:28;1.90;;;1.33;;
14611;SDS011;7392;52.078;11.650;2023-04-03T15:22:59;1.30;;;0.90;;
14611;SDS011;7392;52.078;11.650;2023-04-03T15:25:27;2.37;;;1.07;;
14611;SDS011;7392;52.078;11.650;2023-04-03T15:27:58;1.97;;;1.10;;
14611;SDS011;7392;52.078;11.650;2023-04-03T15:30:27;2.30;;;1.40;;
14611;SDS011;7392;52.078;11.650;2023-04-03T15:32:56;1.37;;;1.03;;
14611;SDS011;7392;52.078;11.650;2023-04-03T15:35:27;2.77;;;1.20;;
14611;SDS011;7392;52.078;11.650;2023-04-03T15:37:59;2.13;;;1.20;;
14611;SDS011;7392;52.078;11.650;2023-04-03T15:40:31;1.43;;;0.80;;